createdAt,value
2018-07-01T00:00:54.990Z,10.30
2018-07-01T00:05:39.615Z,10.30
2018-07-01T00:10:24.196Z,10.60
2018-07-01T00:15:09.248Z,10.50
2018-07-01T00:19:53.693Z,10.40
2018-07-01T00:24:38.497Z,10.50
2018-07-01T00:29:23.018Z,10.70
2018-07-01T00:34:07.672Z,10.80
2018-07-01T00:38:52.136Z,10.60
2018-07-01T00:43:36.548Z,10.40
2018-07-01T00:48:21.048Z,10.30
2018-07-01T00:53:05.518Z,10.50
2018-07-01T00:57:49.957Z,10.60
2018-07-01T01:02:34.407Z,10.70
2018-07-01T01:07:18.857Z,10.60
2018-07-01T01:12:03.365Z,10.40
2018-07-01T01:16:47.957Z,10.30
2018-07-01T01:21:32.371Z,10.30
2018-07-01T01:26:17.003Z,10.30
2018-07-01T01:31:01.486Z,10.10
2018-07-01T01:35:46.243Z,9.90
2018-07-01T01:40:34.971Z,9.80
2018-07-01T01:45:25.223Z,10.00
2018-07-01T01:50:17.328Z,10.00
2018-07-01T01:55:08.476Z,9.80
2018-07-01T01:59:58.199Z,9.70
2018-07-01T02:04:48.155Z,9.50
2018-07-01T02:09:34.558Z,9.50
2018-07-01T02:14:25.784Z,9.50
2018-07-01T02:19:10.264Z,9.30
2018-07-01T02:23:57.964Z,9.20
2018-07-01T02:28:42.563Z,9.10
2018-07-01T02:33:26.945Z,8.90
2018-07-01T02:38:11.271Z,9.00
2018-07-01T02:42:55.804Z,8.80
2018-07-01T02:47:40.224Z,8.60
2018-07-01T02:52:24.718Z,8.40
2018-07-01T02:57:09.129Z,8.30
2018-07-01T03:01:53.512Z,8.10
2018-07-01T03:06:37.937Z,8.00
2018-07-01T03:11:22.354Z,7.90
2018-07-01T03:16:06.806Z,7.80
2018-07-01T03:20:51.258Z,7.70
2018-07-01T03:25:35.679Z,7.70
2018-07-01T03:30:20.095Z,7.70
2018-07-01T03:35:04.594Z,7.70
2018-07-01T03:39:49.017Z,7.80
2018-07-01T03:44:33.604Z,8.00
2018-07-01T03:49:17.984Z,8.50
2018-07-01T03:54:02.540Z,10.80
2018-07-01T03:58:47.168Z,12.90
2018-07-01T04:03:31.623Z,14.10
2018-07-01T04:08:16.191Z,14.40
2018-07-01T04:13:00.593Z,13.20
2018-07-01T04:17:45.031Z,12.20
2018-07-01T04:22:29.494Z,11.30
2018-07-01T04:27:13.912Z,10.90
2018-07-01T04:31:58.453Z,10.80
2018-07-01T04:36:42.923Z,10.80
2018-07-01T04:41:27.596Z,11.10
2018-07-01T04:46:12.034Z,11.50
2018-07-01T04:50:56.548Z,12.00
2018-07-01T04:55:41.068Z,12.40
2018-07-01T05:00:26.563Z,12.70
2018-07-01T05:05:11.058Z,13.20
2018-07-01T05:09:55.553Z,13.50
2018-07-01T05:14:40.070Z,13.70
2018-07-01T05:19:24.452Z,14.00
2018-07-01T05:24:08.886Z,14.20
2018-07-01T05:29:07.400Z,14.50
2018-07-01T05:33:52.122Z,14.80
2018-07-01T05:38:38.208Z,15.10
2018-07-01T05:43:23.823Z,15.50
2018-07-01T05:48:08.440Z,15.80
2018-07-01T05:52:53.509Z,16.00
2018-07-01T05:57:38.516Z,16.20
2018-07-01T06:02:22.939Z,16.30
2018-07-01T06:07:08.426Z,16.40
2018-07-01T06:16:39.781Z,16.70
2018-07-01T06:21:24.355Z,17.10
2018-07-01T06:26:08.904Z,17.00
2018-07-01T06:30:53.400Z,17.50
2018-07-01T06:35:37.923Z,17.80
2018-07-01T06:40:22.384Z,18.00
2018-07-01T06:45:06.784Z,17.90
2018-07-01T06:49:51.510Z,17.90
2018-07-01T06:54:36.216Z,18.20
2018-07-01T06:59:20.605Z,18.40
2018-07-01T07:04:05.010Z,18.60
2018-07-01T07:08:55.496Z,19.00
2018-07-01T07:13:40.579Z,19.30
2018-07-01T07:18:25.004Z,19.40
2018-07-01T07:23:09.503Z,19.50
2018-07-01T07:27:54.067Z,20.00
2018-07-01T07:32:38.403Z,19.70
2018-07-01T07:37:22.971Z,19.60
2018-07-01T07:42:07.401Z,19.70
2018-07-01T07:46:52.107Z,20.10
2018-07-01T07:51:36.608Z,20.10
2018-07-01T08:05:48.916Z,20.10
2018-07-01T08:10:33.404Z,20.30
2018-07-01T08:15:18.047Z,20.60
2018-07-01T08:20:06.296Z,21.00
2018-07-01T08:24:50.868Z,21.30
2018-07-01T08:29:35.642Z,21.10
2018-07-01T08:34:20.194Z,21.40
2018-07-01T08:44:02.367Z,21.70
2018-07-01T08:48:46.718Z,21.60
2018-07-01T08:53:31.162Z,21.90
2018-07-01T08:58:16.728Z,22.40
2018-07-01T09:03:01.137Z,21.30
2018-07-01T09:07:45.649Z,21.90
2018-07-01T09:12:30.083Z,22.30
2018-07-01T09:17:14.831Z,22.50
2018-07-01T09:22:00.949Z,22.80
2018-07-01T09:26:46.300Z,21.80
2018-07-01T09:31:31.053Z,22.00
2018-07-01T09:36:16.218Z,22.30
2018-07-01T09:41:00.676Z,22.50
2018-07-01T09:45:46.715Z,22.20
2018-07-01T09:50:31.351Z,21.50
2018-07-01T09:55:15.778Z,21.20
2018-07-01T10:00:00.245Z,21.00
2018-07-01T10:04:44.767Z,21.10
2018-07-01T10:09:29.451Z,21.50
2018-07-01T10:14:13.896Z,21.30
2018-07-01T10:18:58.330Z,21.20
2018-07-01T10:23:43.097Z,22.40
2018-07-01T10:28:28.511Z,23.50
2018-07-01T10:33:13.752Z,22.30
2018-07-01T10:37:58.434Z,21.80
2018-07-01T10:42:49.816Z,21.50
2018-07-01T10:47:34.330Z,22.40
2018-07-01T10:52:19.727Z,22.20
2018-07-01T10:57:04.140Z,21.40
2018-07-01T11:01:48.859Z,20.90
2018-07-01T11:06:33.411Z,21.00
2018-07-01T11:11:18.054Z,22.20
2018-07-01T11:16:02.623Z,22.80
2018-07-01T11:20:47.579Z,22.70
2018-07-01T11:25:32.443Z,23.50
2018-07-01T11:30:18.138Z,22.90
2018-07-01T11:35:02.958Z,22.30
2018-07-01T11:39:47.557Z,21.70
2018-07-01T11:44:32.529Z,21.50
2018-07-01T11:49:17.147Z,21.60
2018-07-01T11:54:01.963Z,21.40
2018-07-01T11:58:46.685Z,21.20
2018-07-01T12:03:31.142Z,21.20
2018-07-01T12:08:15.564Z,22.80
2018-07-01T12:13:00.080Z,24.40
2018-07-01T12:17:44.772Z,24.90
2018-07-01T12:22:29.468Z,24.60
2018-07-01T12:27:14.000Z,24.40
2018-07-01T12:41:26.769Z,24.90
2018-07-01T12:46:11.147Z,26.10
2018-07-01T12:50:57.066Z,25.30
2018-07-01T12:55:41.509Z,24.60
2018-07-01T13:05:10.222Z,24.30
2018-07-01T13:09:54.642Z,23.80
2018-07-01T13:14:39.010Z,23.80
2018-07-01T13:19:23.399Z,23.60
2018-07-01T13:24:07.989Z,24.40
2018-07-01T13:28:52.431Z,25.80
2018-07-01T13:33:36.915Z,27.20
2018-07-01T13:38:21.309Z,26.80
2018-07-01T13:47:49.724Z,24.90
2018-07-01T13:52:34.206Z,23.40
2018-07-01T13:57:18.731Z,22.70
2018-07-01T14:02:03.158Z,22.20
2018-07-01T14:06:47.645Z,22.30
2018-07-01T14:11:32.208Z,22.50
2018-07-01T14:16:16.603Z,22.90
2018-07-01T14:21:01.281Z,23.10
2018-07-01T14:25:45.706Z,22.80
2018-07-01T14:30:30.265Z,22.60
2018-07-01T14:35:14.711Z,22.40
2018-07-01T14:39:59.371Z,23.10
2018-07-01T14:44:43.943Z,24.60
2018-07-01T14:49:29.575Z,25.70
2018-07-01T14:54:14.321Z,25.10
2018-07-01T14:58:58.868Z,24.40
2018-07-01T15:03:43.399Z,23.50
2018-07-01T15:08:28.040Z,22.80
2018-07-01T15:13:12.644Z,22.40
2018-07-01T15:17:57.284Z,22.50
2018-07-01T15:22:41.914Z,22.40
2018-07-01T15:27:27.075Z,22.30
2018-07-01T15:32:11.659Z,22.30
2018-07-01T15:36:56.396Z,22.30
2018-07-01T15:41:41.272Z,23.10
2018-07-01T15:46:26.098Z,24.80
2018-07-01T15:51:11.548Z,26.80
2018-07-01T15:55:56.385Z,26.40
2018-07-01T16:00:40.892Z,27.10
2018-07-01T16:10:09.473Z,28.50
2018-07-01T16:14:54.213Z,29.20
2018-07-01T16:19:38.737Z,27.30
2018-07-01T16:24:23.570Z,25.40
2018-07-01T16:29:08.864Z,23.90
2018-07-01T16:33:53.631Z,23.00
2018-07-01T16:38:38.117Z,22.00
2018-07-01T16:43:22.926Z,21.40
2018-07-01T16:48:08.147Z,21.70
2018-07-01T16:52:52.816Z,23.10
2018-07-01T16:57:37.482Z,22.70
2018-07-01T17:02:22.120Z,24.00
2018-07-01T17:07:07.137Z,26.40
2018-07-01T17:11:51.836Z,28.70
2018-07-01T17:16:36.790Z,29.80
2018-07-01T17:21:21.392Z,29.00
2018-07-01T17:26:06.413Z,27.40
2018-07-01T17:32:57.392Z,25.30
2018-07-01T17:37:41.958Z,26.10
2018-07-01T17:42:26.567Z,27.20
2018-07-01T17:47:11.281Z,27.40
2018-07-01T17:51:55.890Z,26.90
2018-07-01T17:56:40.610Z,25.40
2018-07-01T18:01:25.241Z,24.00
2018-07-01T18:06:10.863Z,22.40
2018-07-01T18:10:55.640Z,21.50
2018-07-01T18:15:40.342Z,20.30
2018-07-01T18:20:25.231Z,19.40
2018-07-01T18:25:12.342Z,18.90
2018-07-01T18:29:56.518Z,18.30
2018-07-01T18:34:41.848Z,17.80
2018-07-01T18:39:28.074Z,17.20
2018-07-01T18:44:13.445Z,16.90
2018-07-01T18:48:58.999Z,16.70
2018-07-01T18:53:44.441Z,16.50
2018-07-01T18:58:29.464Z,16.30
2018-07-01T19:03:14.090Z,16.20
2018-07-01T19:07:58.511Z,16.50
2018-07-01T19:12:43.186Z,16.40
2018-07-01T19:17:27.946Z,16.00
2018-07-01T19:22:12.448Z,15.60
2018-07-01T19:26:57.089Z,15.30
2018-07-01T19:31:41.973Z,14.90
2018-07-01T19:36:26.474Z,14.50
2018-07-01T19:41:11.078Z,14.00
2018-07-01T19:45:55.652Z,13.60
2018-07-01T19:50:40.492Z,13.30
2018-07-01T19:55:25.274Z,12.90
2018-07-01T20:00:11.460Z,12.60
2018-07-01T20:04:56.463Z,12.30
2018-07-01T20:09:41.226Z,12.00
2018-07-01T20:14:25.791Z,11.70
2018-07-01T20:19:10.928Z,11.50
2018-07-01T20:23:55.897Z,11.40
2018-07-01T20:28:40.683Z,11.30
2018-07-01T20:33:25.523Z,11.30
2018-07-01T20:38:10.472Z,11.20
2018-07-01T20:42:55.047Z,11.10
2018-07-01T20:47:39.749Z,11.10
2018-07-01T20:52:24.723Z,11.00
2018-07-01T20:57:09.548Z,10.90
2018-07-01T21:01:54.311Z,10.90
2018-07-01T21:06:39.132Z,10.80
2018-07-01T21:11:23.795Z,10.90
2018-07-01T21:16:08.689Z,10.80
2018-07-01T21:20:53.322Z,10.70
2018-07-01T21:25:38.066Z,10.80
2018-07-01T21:30:22.767Z,10.70
2018-07-01T21:35:07.682Z,10.70
2018-07-01T21:39:52.242Z,10.50
2018-07-01T21:44:37.196Z,10.70
2018-07-01T21:49:22.014Z,10.70
2018-07-01T21:54:07.039Z,11.10
2018-07-01T21:58:51.755Z,11.20
2018-07-01T22:03:36.913Z,11.20
2018-07-01T22:08:21.820Z,11.30
2018-07-01T22:15:27.354Z,11.30
2018-07-01T22:20:11.698Z,10.90
2018-07-01T22:24:57.843Z,10.60
2018-07-01T22:29:42.294Z,10.40
2018-07-01T22:34:27.000Z,10.20
2018-07-01T22:39:15.615Z,9.90
2018-07-01T22:44:00.072Z,9.70
2018-07-01T22:48:45.113Z,9.70
2018-07-01T22:53:30.720Z,9.90
2018-07-01T22:58:15.419Z,10.00
2018-07-01T23:03:21.479Z,10.10
2018-07-01T23:08:05.888Z,10.20
2018-07-01T23:12:51.655Z,10.00
2018-07-01T23:17:36.580Z,9.90
2018-07-01T23:22:21.227Z,9.70
2018-07-01T23:27:05.832Z,9.70
2018-07-01T23:32:03.584Z,9.80
2018-07-01T23:36:48.462Z,10.00
2018-07-01T23:41:33.197Z,10.00
2018-07-01T23:46:41.744Z,10.00
2018-07-01T23:51:30.162Z,9.80
2018-07-01T23:56:15.930Z,10.00
